createdAt,value
2023-03-06T00:00:57.245Z,99002.75
2023-03-06T00:03:27.740Z,99002.31
2023-03-06T00:05:57.238Z,99000.78
2023-03-06T00:08:25.552Z,98999.25
2023-03-06T00:10:52.098Z,98974.16
2023-03-06T00:13:19.912Z,98866.94
2023-03-06T00:15:47.644Z,99001.34
2023-03-06T00:18:14.595Z,98992.56
2023-03-06T00:20:43.050Z,98995.19
2023-03-06T00:23:11.087Z,98993.38
2023-03-06T00:25:38.787Z,99000.06
2023-03-06T00:28:06.465Z,99044.72
2023-03-06T00:30:33.318Z,98993.69
2023-03-06T00:32:59.934Z,98948.75
2023-03-06T00:35:26.598Z,98771.31
2023-03-06T00:37:53.237Z,98811.84
2023-03-06T00:40:21.461Z,98984.19
2023-03-06T00:42:48.157Z,98988.41
2023-03-06T00:45:14.985Z,99030.94
2023-03-06T00:47:41.726Z,98987.66
2023-03-06T00:50:09.132Z,98984.75
2023-03-06T00:52:36.101Z,98826.28
2023-03-06T00:55:02.769Z,98780.84
2023-03-06T00:57:30.324Z,98990.38
2023-03-06T00:59:57.344Z,98981.41
2023-03-06T01:02:24.110Z,98869.13
2023-03-06T01:04:51.256Z,98896.44
2023-03-06T01:07:17.889Z,98991.22
2023-03-06T01:09:44.474Z,98887.19
2023-03-06T01:12:11.185Z,98982.03
2023-03-06T01:14:38.809Z,98890.88
2023-03-06T01:17:05.477Z,99020.84
2023-03-06T01:19:32.055Z,98981.84
2023-03-06T01:21:58.635Z,98984.69
2023-03-06T01:24:25.904Z,98973.22
2023-03-06T01:26:56.253Z,98974.59
2023-03-06T01:29:23.069Z,98968.53
2023-03-06T01:31:49.671Z,98971.00
2023-03-06T01:34:16.368Z,98975.28
2023-03-06T01:36:42.943Z,98970.78
2023-03-06T01:39:10.255Z,98971.94
2023-03-06T01:41:37.024Z,98897.84
2023-03-06T01:44:03.788Z,98970.09
2023-03-06T01:46:32.526Z,98964.81
2023-03-06T01:49:11.696Z,98966.38
2023-03-06T01:51:42.099Z,98933.84
2023-03-06T01:54:22.721Z,98779.59
2023-03-06T01:56:54.441Z,98957.63
2023-03-06T01:59:22.399Z,98962.63
2023-03-06T02:01:51.097Z,98750.69
2023-03-06T02:04:18.336Z,98965.41
2023-03-06T02:06:45.415Z,98964.53
2023-03-06T02:09:13.465Z,98970.03
2023-03-06T02:11:43.983Z,98970.81
2023-03-06T02:14:16.794Z,98974.25
2023-03-06T02:16:44.296Z,98960.16
2023-03-06T02:19:32.489Z,98965.94
2023-03-06T02:21:59.549Z,98962.56
2023-03-06T02:24:42.216Z,99070.44
2023-03-06T02:27:12.422Z,98952.50
2023-03-06T02:29:39.147Z,98898.88
2023-03-06T02:32:05.990Z,98909.00
2023-03-06T02:34:48.572Z,98948.56
2023-03-06T02:37:15.287Z,98899.25
2023-03-06T02:39:46.942Z,98933.06
2023-03-06T02:42:22.972Z,98939.66
2023-03-06T02:44:51.261Z,98937.69
2023-03-06T02:47:17.863Z,98901.00
2023-03-06T02:49:44.541Z,98912.63
2023-03-06T02:52:11.116Z,98936.03
2023-03-06T02:54:39.232Z,98693.91
2023-03-06T02:57:06.746Z,98945.84
2023-03-06T02:59:34.067Z,98859.63
2023-03-06T03:02:01.665Z,98904.19
2023-03-06T03:04:28.846Z,98936.03
2023-03-06T03:06:56.496Z,98931.25
2023-03-06T03:09:24.712Z,98919.19
2023-03-06T03:11:51.286Z,98881.72
2023-03-06T03:14:17.971Z,98930.53
2023-03-06T03:16:46.309Z,98932.84
2023-03-06T03:19:13.129Z,98934.09
2023-03-06T03:21:40.675Z,98900.63
2023-03-06T03:24:07.929Z,98934.56
2023-03-06T03:26:34.590Z,98937.69
2023-03-06T03:29:07.604Z,98943.81
2023-03-06T03:31:34.456Z,98937.03
2023-03-06T03:34:02.477Z,98928.31
2023-03-06T03:36:32.195Z,98938.28
2023-03-06T03:39:00.249Z,98938.78
2023-03-06T03:41:27.099Z,98902.06
2023-03-06T03:43:53.784Z,98745.03
2023-03-06T03:46:21.575Z,98931.88
2023-03-06T03:48:50.141Z,98934.19
2023-03-06T03:51:17.016Z,98937.19
2023-03-06T03:53:49.255Z,98932.94
2023-03-06T03:56:19.614Z,98761.78
2023-03-06T03:58:54.736Z,98880.91
2023-03-06T04:01:22.445Z,98937.72
2023-03-06T04:03:49.072Z,98942.25
2023-03-06T04:06:17.289Z,98923.59
2023-03-06T04:08:44.372Z,98853.59
2023-03-06T04:11:11.345Z,98917.13
2023-03-06T04:13:38.060Z,98843.06
2023-03-06T04:16:06.016Z,98717.56
2023-03-06T04:18:34.028Z,98915.44
2023-03-06T04:21:04.473Z,98803.59
2023-03-06T04:23:31.495Z,98840.06
2023-03-06T04:25:58.250Z,98743.09
2023-03-06T04:28:25.481Z,98905.84
2023-03-06T04:30:52.401Z,98879.66
2023-03-06T04:33:20.422Z,98904.81
2023-03-06T04:35:48.437Z,98909.16
2023-03-06T04:38:20.473Z,98908.59
2023-03-06T04:40:49.761Z,98901.63
2023-03-06T04:43:16.762Z,98913.28
2023-03-06T04:45:43.339Z,98757.34
2023-03-06T04:48:13.182Z,98910.47
2023-03-06T04:50:39.853Z,98908.81
2023-03-06T04:53:06.632Z,98881.91
2023-03-06T04:55:33.201Z,98910.94
2023-03-06T04:57:59.790Z,98895.22
2023-03-06T05:00:30.543Z,98888.88
2023-03-06T05:02:59.449Z,98707.78
2023-03-06T05:05:26.392Z,98908.56
2023-03-06T05:07:53.333Z,98888.47
2023-03-06T05:10:20.722Z,98892.34
2023-03-06T05:12:47.417Z,98912.97
2023-03-06T05:15:14.996Z,98913.81
2023-03-06T05:17:42.117Z,98839.47
2023-03-06T05:20:11.071Z,98906.44
2023-03-06T05:22:37.944Z,98910.34
2023-03-06T05:25:05.340Z,98808.00
2023-03-06T05:27:32.390Z,98905.41
2023-03-06T05:29:59.233Z,98898.50
2023-03-06T05:32:25.925Z,98840.94
2023-03-06T05:34:53.317Z,98909.06
2023-03-06T05:37:20.222Z,98834.53
2023-03-06T05:39:46.970Z,98903.88
2023-03-06T05:42:13.684Z,98904.22
2023-03-06T05:44:41.742Z,98780.81
2023-03-06T05:47:09.143Z,98883.25
2023-03-06T05:49:36.640Z,98328.16
2023-03-06T05:52:04.563Z,98903.44
2023-03-06T05:54:32.722Z,98891.31
2023-03-06T05:56:59.548Z,98903.59
2023-03-06T05:59:28.414Z,98879.97
2023-03-06T06:01:56.127Z,98863.19
2023-03-06T06:04:24.366Z,98903.94
2023-03-06T06:06:53.668Z,98787.88
2023-03-06T06:09:22.460Z,98902.75
2023-03-06T06:11:57.366Z,98741.44
2023-03-06T06:14:24.303Z,98853.63
2023-03-06T06:16:51.465Z,98896.75
2023-03-06T06:19:20.813Z,98757.25
2023-03-06T06:21:49.871Z,98838.13
2023-03-06T06:24:19.088Z,98901.78
2023-03-06T06:26:46.169Z,98998.56
2023-03-06T06:29:13.648Z,98895.75
2023-03-06T06:31:40.637Z,98898.09
2023-03-06T06:34:10.196Z,98899.50
2023-03-06T06:36:37.528Z,98813.69
2023-03-06T06:39:04.996Z,98897.31
2023-03-06T06:42:00.075Z,98865.88
2023-03-06T06:44:19.999Z,98842.47
2023-03-06T06:47:21.210Z,98903.34
2023-03-06T06:49:34.394Z,98839.97
2023-03-06T06:52:01.178Z,98837.59
2023-03-06T06:54:28.306Z,98904.41
2023-03-06T06:56:54.921Z,98844.81
2023-03-06T06:59:23.652Z,98769.63
2023-03-06T07:01:51.860Z,98902.63
2023-03-06T07:04:19.231Z,98912.81
2023-03-06T07:06:46.253Z,98907.03
2023-03-06T07:09:13.982Z,98737.00
2023-03-06T07:11:41.123Z,98912.00
2023-03-06T07:14:08.211Z,98666.00
2023-03-06T07:16:34.957Z,98901.53
2023-03-06T07:19:01.708Z,98904.41
2023-03-06T07:21:28.319Z,98904.66
2023-03-06T07:23:57.248Z,98913.47
2023-03-06T07:26:25.137Z,98913.03
2023-03-06T07:28:53.660Z,98911.56
2023-03-06T07:31:22.405Z,98841.75
2023-03-06T07:33:50.666Z,98910.06
2023-03-06T07:36:17.800Z,98871.19
2023-03-06T07:38:44.674Z,98760.91
2023-03-06T07:41:13.741Z,98586.97
2023-03-06T07:43:42.055Z,98740.34
2023-03-06T07:46:09.947Z,98929.13
2023-03-06T07:48:37.657Z,98910.28
2023-03-06T07:51:07.465Z,98850.88
2023-03-06T07:53:34.997Z,98907.88
2023-03-06T07:56:08.532Z,98910.28
2023-03-06T07:58:36.601Z,98809.09
2023-03-06T08:01:08.487Z,98921.28
2023-03-06T08:03:35.479Z,98990.06
2023-03-06T08:06:23.389Z,98916.50
2023-03-06T08:08:51.196Z,98830.75
2023-03-06T08:11:20.246Z,98921.44
2023-03-06T08:13:48.809Z,98909.84
2023-03-06T08:16:17.276Z,98748.84
2023-03-06T08:18:46.266Z,98914.94
2023-03-06T08:21:24.924Z,98869.34
2023-03-06T08:23:51.703Z,98917.09
2023-03-06T08:26:21.203Z,98917.00
2023-03-06T08:28:47.862Z,98846.59
2023-03-06T08:31:27.514Z,98915.69
2023-03-06T08:33:55.552Z,98914.00
2023-03-06T08:36:22.441Z,98906.75
2023-03-06T08:38:49.222Z,98748.69
2023-03-06T08:41:16.026Z,98872.72
2023-03-06T08:43:43.178Z,98886.25
2023-03-06T08:46:11.219Z,98920.66
2023-03-06T08:48:38.528Z,98751.22
2023-03-06T08:51:05.522Z,98923.91
2023-03-06T08:53:42.768Z,98914.66
2023-03-06T08:56:18.706Z,98926.19
2023-03-06T08:58:46.243Z,98915.84
2023-03-06T09:01:15.065Z,98796.91
2023-03-06T09:03:42.269Z,98913.63
2023-03-06T09:06:08.957Z,98910.75
2023-03-06T09:08:35.598Z,98916.75
2023-03-06T09:11:02.162Z,98899.44
2023-03-06T09:13:28.816Z,98915.28
2023-03-06T09:15:55.406Z,98919.31
2023-03-06T09:18:21.980Z,98763.38
2023-03-06T09:20:48.537Z,98898.06
2023-03-06T09:23:15.132Z,98912.22
2023-03-06T09:25:41.678Z,98676.53
2023-03-06T09:28:11.784Z,98911.59
2023-03-06T09:30:40.516Z,98859.09
2023-03-06T09:33:07.296Z,98902.91
2023-03-06T09:35:33.953Z,98897.22
2023-03-06T09:38:00.537Z,98435.56
2023-03-06T09:40:58.284Z,98904.72
2023-03-06T09:43:30.762Z,98898.88
2023-03-06T09:45:59.026Z,98902.25
2023-03-06T09:48:45.742Z,98900.25
2023-03-06T09:51:19.889Z,98893.94
2023-03-06T09:54:02.690Z,98900.34
2023-03-06T09:56:32.767Z,98892.53
2023-03-06T09:59:13.379Z,98842.25
2023-03-06T10:01:44.134Z,98890.13
2023-03-06T10:04:35.961Z,98892.34
2023-03-06T10:07:24.001Z,98891.19
2023-03-06T10:10:21.994Z,98897.31
2023-03-06T10:13:06.374Z,98889.38
2023-03-06T10:15:36.194Z,98697.78
2023-03-06T10:18:04.384Z,98879.06
2023-03-06T10:20:40.933Z,98885.00
2023-03-06T10:23:24.881Z,98885.97
2023-03-06T10:26:01.594Z,98893.72
2023-03-06T10:28:48.067Z,98880.78
2023-03-06T10:31:24.906Z,98882.75
2023-03-06T10:33:59.241Z,98882.53
2023-03-06T10:36:28.010Z,98844.13
2023-03-06T10:38:57.288Z,98870.66
2023-03-06T10:41:25.846Z,98870.66
2023-03-06T10:44:04.787Z,98864.56
2023-03-06T10:46:37.434Z,98856.59
2023-03-06T10:49:25.954Z,98857.03
2023-03-06T10:51:59.671Z,98853.31
2023-03-06T10:54:27.490Z,98828.78
2023-03-06T10:56:54.063Z,98687.84
2023-03-06T10:59:25.148Z,98848.59
2023-03-06T11:01:57.707Z,98854.03
2023-03-06T11:04:26.440Z,98843.13
2023-03-06T11:07:15.066Z,98840.47
2023-03-06T11:09:59.487Z,98838.91
2023-03-06T11:12:37.041Z,98837.69
2023-03-06T11:15:06.617Z,98832.06
2023-03-06T11:17:37.063Z,98834.84
2023-03-06T11:20:21.604Z,98827.63
2023-03-06T11:22:56.149Z,98825.03
2023-03-06T11:25:29.268Z,98821.59
2023-03-06T11:28:02.196Z,98799.69
2023-03-06T11:30:41.841Z,98818.34
2023-03-06T11:33:17.645Z,98788.22
2023-03-06T11:35:52.048Z,98808.44
2023-03-06T11:38:30.851Z,98663.72
2023-03-06T11:41:05.793Z,98810.31
2023-03-06T11:43:52.885Z,98812.53
2023-03-06T11:46:34.320Z,98806.97
2023-03-06T11:49:16.836Z,98808.53
2023-03-06T11:51:51.448Z,98809.53
2023-03-06T11:54:18.212Z,98774.78
2023-03-06T11:57:02.233Z,98703.19
2023-03-06T11:59:57.875Z,98809.09
2023-03-06T12:02:45.049Z,98799.81
2023-03-06T12:05:45.932Z,98798.38
2023-03-06T12:08:28.352Z,98797.03
2023-03-06T12:11:02.427Z,98792.97
2023-03-06T12:13:39.528Z,98600.56
2023-03-06T12:16:07.194Z,98788.00
2023-03-06T12:18:55.674Z,98782.28
2023-03-06T12:21:57.667Z,98802.91
2023-03-06T12:24:49.076Z,98784.00
2023-03-06T12:27:34.560Z,98787.00
2023-03-06T12:30:29.057Z,98781.16
2023-03-06T12:33:00.788Z,98779.28
2023-03-06T12:35:30.334Z,98766.69
2023-03-06T12:38:08.780Z,98769.66
2023-03-06T12:40:44.573Z,98775.16
2023-03-06T12:43:48.276Z,98765.59
2023-03-06T12:46:26.329Z,98761.75
2023-03-06T12:49:03.640Z,98761.63
2023-03-06T12:51:32.654Z,98755.56
2023-03-06T12:54:01.948Z,98760.59
2023-03-06T12:56:30.897Z,98777.78
2023-03-06T12:59:02.252Z,98714.13
2023-03-06T13:02:00.745Z,98757.44
2023-03-06T13:04:41.775Z,98597.34
2023-03-06T13:07:19.554Z,98754.41
2023-03-06T13:10:07.359Z,98753.81
2023-03-06T13:12:56.741Z,98765.03
2023-03-06T13:15:29.539Z,98748.63
2023-03-06T13:17:56.918Z,98711.03
2023-03-06T13:20:42.811Z,98741.03
2023-03-06T13:23:31.450Z,98890.50
2023-03-06T13:26:08.247Z,98586.38
2023-03-06T13:28:50.271Z,98592.50
2023-03-06T13:31:32.247Z,98733.09
2023-03-06T13:34:06.166Z,98740.72
2023-03-06T13:36:34.739Z,98732.56
2023-03-06T13:39:09.269Z,98587.25
2023-03-06T13:41:52.496Z,98732.22
2023-03-06T13:44:24.270Z,98727.66
2023-03-06T13:47:01.158Z,98615.13
2023-03-06T13:49:29.296Z,98537.22
2023-03-06T13:52:04.861Z,98739.22
2023-03-06T13:55:10.169Z,98702.34
2023-03-06T13:58:12.318Z,98643.97
2023-03-06T14:01:04.174Z,98726.22
2023-03-06T14:04:14.704Z,98721.41
2023-03-06T14:06:50.472Z,98609.66
2023-03-06T14:09:32.244Z,98715.34
2023-03-06T14:12:08.501Z,98708.91
2023-03-06T14:14:41.681Z,98578.44
2023-03-06T14:17:20.492Z,98710.78
2023-03-06T14:19:47.620Z,98668.06
2023-03-06T14:22:21.009Z,98711.13
2023-03-06T14:25:00.888Z,98709.28
2023-03-06T14:27:41.608Z,98705.06
2023-03-06T14:30:12.881Z,98699.09
2023-03-06T14:32:40.579Z,98701.34
2023-03-06T14:35:18.915Z,98693.25
2023-03-06T14:37:50.105Z,98460.31
2023-03-06T14:40:26.203Z,98692.44
2023-03-06T14:43:29.230Z,98608.75
2023-03-06T14:46:01.679Z,98639.31
2023-03-06T14:48:44.129Z,98612.06
2023-03-06T14:51:25.458Z,98562.78
2023-03-06T14:53:54.548Z,98536.59
2023-03-06T14:56:25.662Z,98527.63
2023-03-06T14:58:55.067Z,98680.59
2023-03-06T15:01:28.470Z,98562.69
2023-03-06T15:03:59.839Z,98682.72
2023-03-06T15:06:42.887Z,98684.97
2023-03-06T15:09:25.297Z,98658.75
2023-03-06T15:11:53.068Z,98679.91
2023-03-06T15:14:27.115Z,98677.44
2023-03-06T15:16:53.755Z,98680.16
2023-03-06T15:19:22.702Z,98665.50
2023-03-06T15:21:51.861Z,98679.34
2023-03-06T15:24:34.464Z,98674.19
2023-03-06T15:27:06.954Z,98493.75
2023-03-06T15:29:38.778Z,98664.94
2023-03-06T15:32:34.288Z,98670.66
2023-03-06T15:35:22.795Z,98675.81
2023-03-06T15:37:49.673Z,98610.44
2023-03-06T15:40:19.062Z,98661.09
2023-03-06T15:42:46.404Z,98558.13
2023-03-06T15:45:22.042Z,98662.13
2023-03-06T15:47:50.857Z,98511.88
2023-03-06T15:50:25.346Z,98658.75
2023-03-06T15:52:52.236Z,98666.47
2023-03-06T15:55:25.909Z,98390.94
2023-03-06T15:58:00.946Z,98649.97
2023-03-06T16:00:30.834Z,98649.97
2023-03-06T16:02:58.665Z,98647.03
2023-03-06T16:05:26.887Z,98643.66
2023-03-06T16:07:53.856Z,98642.22
2023-03-06T16:10:22.892Z,98643.41
2023-03-06T16:12:56.469Z,98643.53
2023-03-06T16:15:28.818Z,98565.41
2023-03-06T16:17:59.901Z,98491.16
2023-03-06T16:20:28.864Z,98641.41
2023-03-06T16:22:56.174Z,98301.03
2023-03-06T16:25:24.940Z,98637.69
2023-03-06T16:27:55.534Z,98605.03
2023-03-06T16:30:23.425Z,98637.06
2023-03-06T16:32:50.260Z,98643.13
2023-03-06T16:35:18.402Z,98640.78
2023-03-06T16:37:48.169Z,98634.59
2023-03-06T16:40:26.190Z,98480.13
2023-03-06T16:42:55.022Z,98606.09
2023-03-06T16:45:22.834Z,98582.78
2023-03-06T16:47:50.142Z,98639.16
2023-03-06T16:50:28.261Z,98635.66
2023-03-06T16:52:56.404Z,98602.53
2023-03-06T16:55:25.340Z,98640.81
2023-03-06T16:57:52.402Z,98632.81
2023-03-06T17:00:20.435Z,98542.09
2023-03-06T17:02:52.737Z,98624.69
2023-03-06T17:05:19.682Z,98622.13
2023-03-06T17:07:46.653Z,98627.06
2023-03-06T17:10:16.253Z,98619.19
2023-03-06T17:12:43.463Z,98449.53
2023-03-06T17:15:11.376Z,98629.78
2023-03-06T17:17:38.161Z,98626.63
2023-03-06T17:20:11.966Z,98596.69
2023-03-06T17:22:38.860Z,98623.97
2023-03-06T17:25:06.844Z,98546.66
2023-03-06T17:27:34.470Z,98640.03
2023-03-06T17:30:01.568Z,98510.31
2023-03-06T17:32:28.815Z,98508.28
2023-03-06T17:34:55.413Z,98636.38
2023-03-06T17:37:22.121Z,98630.84
2023-03-06T17:39:49.709Z,98632.81
2023-03-06T17:42:16.696Z,98634.13
2023-03-06T17:44:43.477Z,98636.81
2023-03-06T17:47:10.527Z,98636.09
2023-03-06T17:49:37.180Z,98061.44
2023-03-06T17:52:05.691Z,98574.63
2023-03-06T17:54:33.355Z,98435.06
2023-03-06T17:57:03.333Z,98616.94
2023-03-06T17:59:31.962Z,98618.75
2023-03-06T18:01:59.402Z,98562.31
2023-03-06T18:04:26.875Z,98614.47
2023-03-06T18:06:53.514Z,98615.81
2023-03-06T18:09:20.392Z,98463.44
2023-03-06T18:11:47.016Z,98618.03
2023-03-06T18:14:13.685Z,98615.59
2023-03-06T18:16:40.381Z,98619.50
2023-03-06T18:19:07.044Z,98611.16
2023-03-06T18:21:33.634Z,98412.88
2023-03-06T18:24:00.235Z,98607.41
2023-03-06T18:26:29.134Z,98487.84
2023-03-06T18:28:58.328Z,98604.75
2023-03-06T18:31:30.488Z,98610.56
2023-03-06T18:34:01.173Z,98516.69
2023-03-06T18:36:30.668Z,98515.09
2023-03-06T18:38:58.316Z,98553.09
2023-03-06T18:41:25.009Z,98033.22
2023-03-06T18:43:56.610Z,98609.03
2023-03-06T18:46:30.429Z,98528.59
2023-03-06T18:48:57.037Z,98504.56
2023-03-06T18:51:23.614Z,98598.41
2023-03-06T18:53:50.242Z,98427.41
2023-03-06T18:56:19.228Z,98600.34
2023-03-06T18:58:46.730Z,98596.56
2023-03-06T19:01:13.425Z,98538.00
2023-03-06T19:03:40.131Z,98591.50
2023-03-06T19:06:09.247Z,98592.28
2023-03-06T19:08:37.222Z,98533.75
2023-03-06T19:11:06.622Z,98603.41
2023-03-06T19:13:33.398Z,98625.91
2023-03-06T19:16:00.202Z,98530.50
2023-03-06T19:18:28.939Z,98583.19
2023-03-06T19:21:06.400Z,98585.28
2023-03-06T19:23:33.130Z,98518.22
2023-03-06T19:26:00.330Z,98593.44
2023-03-06T19:28:27.411Z,98109.69
2023-03-06T19:30:54.000Z,98590.13
2023-03-06T19:33:20.596Z,98435.34
2023-03-06T19:35:47.892Z,98586.47
2023-03-06T19:38:15.582Z,98407.91
2023-03-06T19:40:49.398Z,98611.66
2023-03-06T19:43:16.197Z,98574.59
2023-03-06T19:45:44.151Z,98425.66
2023-03-06T19:48:12.487Z,98566.81
2023-03-06T19:50:40.604Z,98572.78
2023-03-06T19:53:08.385Z,98465.63
2023-03-06T19:55:35.257Z,98540.28
2023-03-06T19:58:02.041Z,98420.66
2023-03-06T20:00:28.883Z,98587.31
2023-03-06T20:02:58.891Z,98460.69
2023-03-06T20:05:25.479Z,98559.47
2023-03-06T20:07:52.239Z,98527.81
2023-03-06T20:10:19.069Z,98491.16
2023-03-06T20:12:45.774Z,98471.72
2023-03-06T20:15:12.996Z,98413.16
2023-03-06T20:17:42.482Z,98116.59
2023-03-06T20:20:09.914Z,98450.72
2023-03-06T20:22:36.691Z,98549.19
2023-03-06T20:25:03.742Z,98462.22
2023-03-06T20:27:30.419Z,98582.22
2023-03-06T20:29:57.233Z,98428.00
2023-03-06T20:32:23.984Z,98542.97
2023-03-06T20:34:50.740Z,98542.84
2023-03-06T20:37:17.417Z,98542.97
2023-03-06T20:39:44.084Z,98478.69
2023-03-06T20:42:10.743Z,98531.06
2023-03-06T20:44:37.406Z,98561.91
2023-03-06T20:47:04.194Z,98330.28
2023-03-06T20:49:33.359Z,98155.16
2023-03-06T20:52:00.052Z,98489.06
2023-03-06T20:54:27.086Z,98523.06
2023-03-06T20:56:53.728Z,98292.31
2023-03-06T20:59:23.699Z,98419.69
2023-03-06T21:01:50.392Z,98507.97
2023-03-06T21:04:17.314Z,98508.91
2023-03-06T21:06:46.757Z,98480.50
2023-03-06T21:09:16.080Z,98501.72
2023-03-06T21:11:42.860Z,98502.88
2023-03-06T21:14:09.551Z,98245.94
2023-03-06T21:16:36.619Z,98349.53
2023-03-06T21:19:03.416Z,98370.50
2023-03-06T21:21:33.251Z,98430.47
2023-03-06T21:24:00.716Z,98211.75
2023-03-06T21:26:30.431Z,98335.94
2023-03-06T21:29:00.655Z,98489.50
2023-03-06T21:31:28.691Z,98458.09
2023-03-06T21:33:55.782Z,98483.69
2023-03-06T21:36:23.295Z,98486.53
2023-03-06T21:38:51.715Z,98425.47
2023-03-06T21:41:21.683Z,98489.06
2023-03-06T21:43:48.313Z,98299.53
2023-03-06T21:46:15.048Z,98245.19
2023-03-06T21:48:41.792Z,98427.16
2023-03-06T21:51:13.643Z,98478.31
2023-03-06T21:53:44.171Z,98478.00
2023-03-06T21:56:12.211Z,98396.28
2023-03-06T21:58:38.896Z,98468.56
2023-03-06T22:01:13.556Z,98471.50
2023-03-06T22:03:40.404Z,98470.44
2023-03-06T22:06:18.255Z,98469.88
2023-03-06T22:08:45.392Z,98261.19
2023-03-06T22:11:17.065Z,98451.47
2023-03-06T22:13:44.732Z,98232.25
2023-03-06T22:16:11.818Z,97942.09
2023-03-06T22:18:38.902Z,98519.63
2023-03-06T22:21:13.049Z,98448.47
2023-03-06T22:23:42.514Z,98439.78
2023-03-06T22:26:12.670Z,98431.19
2023-03-06T22:28:40.206Z,98313.22
2023-03-06T22:31:09.453Z,98423.31
2023-03-06T22:33:36.832Z,98427.59
2023-03-06T22:36:07.217Z,98429.66
2023-03-06T22:38:35.687Z,98459.09
2023-03-06T22:41:02.419Z,98449.34
2023-03-06T22:43:29.323Z,98420.59
2023-03-06T22:46:08.407Z,98361.59
2023-03-06T22:48:35.143Z,98419.31
2023-03-06T22:51:09.985Z,98415.59
2023-03-06T22:53:37.272Z,98388.69
2023-03-06T22:56:06.157Z,98325.41
2023-03-06T22:58:36.760Z,98177.16
2023-03-06T23:01:06.029Z,98402.66
2023-03-06T23:03:32.850Z,98411.19
2023-03-06T23:05:59.423Z,98394.16
2023-03-06T23:08:26.072Z,98396.41
2023-03-06T23:10:52.607Z,98406.19
2023-03-06T23:13:38.495Z,98387.94
2023-03-06T23:16:24.096Z,98298.78
2023-03-06T23:19:09.585Z,98402.75
2023-03-06T23:21:55.196Z,98286.47
2023-03-06T23:24:40.725Z,98360.41
2023-03-06T23:27:07.497Z,98383.91
2023-03-06T23:29:34.049Z,98394.44
2023-03-06T23:32:01.474Z,98186.63
2023-03-06T23:34:28.192Z,98336.38
2023-03-06T23:36:54.835Z,98341.63
2023-03-06T23:39:22.090Z,98383.09
2023-03-06T23:41:48.853Z,98303.63
2023-03-06T23:44:15.451Z,98319.88
2023-03-06T23:46:42.517Z,98368.84
2023-03-06T23:49:09.124Z,98379.66
2023-03-06T23:51:36.024Z,98369.69
2023-03-06T23:54:02.727Z,98370.47
2023-03-06T23:56:29.427Z,98387.81
2023-03-06T23:58:56.451Z,98313.59
